Time;durP1;ratioP1;P1;durP2;ratioP2;P2;SDS_P1;SDS_P2;PMS_P1;PMS_P2;Temp;Humidity;BMP_temperature;BMP_pressure;BME280_temperature;BME280_humidity;BME280_pressure;Samples;Min_cycle;Max_cycle;Signal;HPM_P1;HPM_P2
2023/05/09 00:00:46;;;;;;;;;;;;;;;9.79;92.31;96789.69;5095512;28;20011;-67
2023/05/09 00:03:13;;;;;;;;;;;;;;;9.76;92.72;96787.16;5095453;28;19920;-70
2023/05/09 00:05:40;;;;;;;;;;;;;;;9.75;92.48;96780.25;5095488;28;19946;-69
2023/05/09 00:08:10;;;;;;;;;;;;;;;9.76;92.59;96777.59;5095309;28;19920;-70
2023/05/09 00:10:39;;;;;;;;;;;;;;;9.76;91.54;96771.50;5095360;28;19920;-70
2023/05/09 00:13:12;;;;;;;;;;;;;;;9.80;91.45;96783.56;5095251;28;19920;-68
2023/05/09 00:15:43;;;;;;;;;;;;;;;9.80;90.88;96778.31;5095200;28;19920;-68
2023/05/09 00:18:10;;;;;;;;;;;;;;;9.73;90.79;96780.28;5095024;28;19973;-67
2023/05/09 00:20:39;;;;;;;;;;;;;;;9.71;91.55;96782.09;5095094;28;19920;-68
2023/05/09 00:23:06;;;;;;;;;;;;;;;9.69;91.55;96773.44;5095063;28;19999;-69
2023/05/09 00:25:37;;;;;;;;;;;;;;;9.71;91.59;96767.28;5095039;28;20003;-67
2023/05/09 00:28:04;;;;;;;;;;;;;;;9.72;91.78;96773.34;5094910;28;20003;-69
2023/05/09 00:30:33;;;;;;;;;;;;;;;9.78;90.80;96774.94;5094971;28;20258;-69
2023/05/09 00:33:01;;;;;;;;;;;;;;;9.73;91.01;96777.69;5094750;28;20376;-69
2023/05/09 00:35:31;;;;;;;;;;;;;;;9.69;90.81;96774.28;5094727;28;19931;-67
2023/05/09 00:37:58;;;;;;;;;;;;;;;9.64;90.33;96770.97;5094778;28;19924;-68
2023/05/09 00:40:25;;;;;;;;;;;;;;;9.64;91.33;96770.97;5094653;28;19924;-69
2023/05/09 00:42:52;;;;;;;;;;;;;;;9.65;90.81;96775.28;5094797;28;19974;-68
2023/05/09 00:45:21;;;;;;;;;;;;;;;9.65;90.29;96777.91;5094597;28;19946;-67
2023/05/09 00:47:49;;;;;;;;;;;;;;;9.65;90.24;96771.81;5094298;28;19920;-68
2023/05/09 00:50:19;;;;;;;;;;;;;;;9.59;89.01;96773.72;5094501;28;19920;-68
2023/05/09 00:52:48;;;;;;;;;;;;;;;9.55;89.76;96771.25;5094555;28;20365;-68
2023/05/09 00:55:16;;;;;;;;;;;;;;;9.50;89.72;96776.59;5094447;28;19924;-67
2023/05/09 00:57:43;;;;;;;;;;;;;;;9.48;89.50;96770.56;5094328;28;19920;-67
2023/05/09 01:00:11;;;;;;;;;;;;;;;9.43;88.84;96775.09;5094386;28;19926;-68
2023/05/09 01:02:38;;;;;;;;;;;;;;;9.44;88.98;96776.78;5094389;28;19924;-69
2023/05/09 01:05:07;;;;;;;;;;;;;;;9.45;89.65;96765.47;5094317;28;19967;-67
2023/05/09 01:07:39;;;;;;;;;;;;;;;9.48;89.53;96767.94;5094177;28;19919;-69
2023/05/09 01:10:11;;;;;;;;;;;;;;;9.44;89.86;96771.56;5094131;28;19926;-67
2023/05/09 01:12:44;;;;;;;;;;;;;;;9.38;89.28;96769.13;5094169;28;20022;-68
2023/05/09 01:15:14;;;;;;;;;;;;;;;9.43;90.97;96785.53;5094094;28;19924;-70
2023/05/09 01:17:49;;;;;;;;;;;;;;;9.43;90.39;96777.69;5094001;28;20274;-68
2023/05/09 01:20:22;;;;;;;;;;;;;;;9.49;91.26;96777.53;5093976;28;19966;-68
2023/05/09 01:22:55;;;;;;;;;;;;;;;9.44;90.92;96777.66;5093982;28;19920;-68
2023/05/09 01:25:38;;;;;;;;;;;;;;;9.35;91.41;96781.38;5093841;28;20334;-68
2023/05/09 01:28:14;;;;;;;;;;;;;;;9.37;91.99;96789.19;5093752;28;20377;-69
2023/05/09 01:30:45;;;;;;;;;;;;;;;9.45;91.34;96787.19;5093931;28;19982;-69
2023/05/09 01:33:17;;;;;;;;;;;;;;;9.41;91.02;96793.41;5093843;28;19920;-67
2023/05/09 01:35:46;;;;;;;;;;;;;;;9.40;90.25;96780.41;5093876;28;19920;-68
2023/05/09 01:38:17;;;;;;;;;;;;;;;9.41;89.47;96790.78;5093777;28;20011;-67
2023/05/09 01:40:45;;;;;;;;;;;;;;;9.43;89.52;96786.41;5093715;28;19920;-69
2023/05/09 01:43:14;;;;;;;;;;;;;;;9.42;89.08;96786.44;5093106;28;20010;-67
2023/05/09 01:45:42;;;;;;;;;;;;;;;9.50;89.94;96781.84;5093458;28;19981;-68
2023/05/09 01:48:11;;;;;;;;;;;;;;;9.45;89.10;96786.34;5093734;28;20012;-69
2023/05/09 01:50:39;;;;;;;;;;;;;;;9.48;89.30;96792.31;5093746;28;19930;-68
2023/05/09 01:53:07;;;;;;;;;;;;;;;9.54;90.10;96793.88;5093555;28;19920;-69
2023/05/09 01:55:38;;;;;;;;;;;;;;;9.50;89.10;96794.03;5093605;28;19920;-67
2023/05/09 01:58:05;;;;;;;;;;;;;;;9.41;89.66;96798.63;5093580;28;20370;-68
2023/05/09 02:00:32;;;;;;;;;;;;;;;9.42;88.55;96802.09;5093560;28;19924;-68
2023/05/09 02:03:00;;;;;;;;;;;;;;;9.39;88.69;96794.34;5093249;28;20297;-67
2023/05/09 02:05:29;;;;;;;;;;;;;;;9.29;87.34;96794.63;5093449;28;20014;-69
2023/05/09 02:07:57;;;;;;;;;;;;;;;9.31;87.55;96798.06;5093572;28;19920;-68
2023/05/09 02:10:25;;;;;;;;;;;;;;;9.36;87.50;96795.28;5093324;28;19924;-67
2023/05/09 02:12:51;;;;;;;;;;;;;;;9.37;87.34;96799.63;5093382;28;19942;-67
2023/05/09 02:15:18;;;;;;;;;;;;;;;9.37;86.56;96789.19;5093372;28;20192;-66
2023/05/09 02:17:45;;;;;;;;;;;;;;;9.33;86.47;96793.63;5093329;28;19974;-68
2023/05/09 02:20:12;;;;;;;;;;;;;;;9.34;86.44;96789.28;5093094;28;20391;-67
2023/05/09 02:22:41;;;;;;;;;;;;;;;9.30;87.28;96790.25;5093381;28;20347;-69
2023/05/09 02:25:09;;;;;;;;;;;;;;;9.29;87.46;96793.75;5093496;28;19930;-68
2023/05/09 02:27:38;;;;;;;;;;;;;;;9.31;87.20;96798.06;5093254;28;19981;-67
2023/05/09 02:30:08;;;;;;;;;;;;;;;9.32;88.08;96798.88;5093159;28;19982;-67
2023/05/09 02:32:35;;;;;;;;;;;;;;;9.33;87.68;96804.06;5093429;28;19926;-67
2023/05/09 02:35:04;;;;;;;;;;;;;;;9.42;88.76;96812.56;5093307;28;19926;-68
2023/05/09 02:37:32;;;;;;;;;;;;;;;9.47;88.26;96810.66;5093223;28;19923;-67
2023/05/09 02:40:01;;;;;;;;;;;;;;;9.54;87.83;96811.34;5093326;28;19924;-68
2023/05/09 02:42:29;;;;;;;;;;;;;;;9.66;88.01;96810.13;5093245;28;20014;-67
2023/05/09 02:44:56;;;;;;;;;;;;;;;9.63;87.41;96816.25;5093245;28;19920;-68
2023/05/09 02:47:24;;;;;;;;;;;;;;;9.68;88.10;96822.22;5092845;28;19924;-68
2023/05/09 02:49:51;;;;;;;;;;;;;;;9.64;88.05;96819.75;5093079;28;20259;-68
2023/05/09 02:52:18;;;;;;;;;;;;;;;9.50;87.07;96807.09;5093046;28;19920;-66
2023/05/09 02:54:46;;;;;;;;;;;;;;;9.38;87.86;96814.38;5093133;28;20002;-67
2023/05/09 02:57:15;;;;;;;;;;;;;;;9.39;88.36;96817.84;5096440;28;19973;-67
2023/05/09 02:59:42;;;;;;;;;;;;;;;9.32;89.68;96815.41;5096761;28;19926;-67
2023/05/09 03:02:09;;;;;;;;;;;;;;;9.31;89.41;96820.69;5096594;28;20014;-67
2023/05/09 03:04:36;;;;;;;;;;;;;;;9.25;88.01;96819.09;5096746;28;19920;-68
2023/05/09 03:07:03;;;;;;;;;;;;;;;9.25;89.31;96831.28;5096669;28;19927;-67
2023/05/09 03:09:30;;;;;;;;;;;;;;;9.32;89.24;96838.91;5096326;28;20349;-67
2023/05/09 03:11:57;;;;;;;;;;;;;;;9.34;88.56;96842.31;5096457;28;20423;-67
2023/05/09 03:14:25;;;;;;;;;;;;;;;9.30;87.93;96838.09;5096457;28;20335;-68
2023/05/09 03:16:52;;;;;;;;;;;;;;;9.33;87.31;96842.41;5096432;28;19943;-67
2023/05/09 03:19:22;;;;;;;;;;;;;;;9.32;87.58;96854.59;5096252;28;19969;-67
2023/05/09 03:21:49;;;;;;;;;;;;;;;9.32;87.94;96857.19;5096237;28;19923;-68
2023/05/09 03:24:16;;;;;;;;;;;;;;;9.35;88.89;96867.56;5096183;28;19920;-68
2023/05/09 03:26:43;;;;;;;;;;;;;;;9.42;89.24;96870.00;5096082;28;20361;-68
2023/05/09 03:29:10;;;;;;;;;;;;;;;9.41;87.63;96871.75;5096005;28;19973;-68
2023/05/09 03:31:39;;;;;;;;;;;;;;;9.40;87.36;96877.88;5096235;28;19927;-67
2023/05/09 03:34:06;;;;;;;;;;;;;;;9.44;88.45;96876.00;5096231;28;19927;-67
2023/05/09 03:36:33;;;;;;;;;;;;;;;9.45;88.30;96877.75;5095995;28;20010;-69
2023/05/09 03:39:00;;;;;;;;;;;;;;;9.54;88.50;96880.06;5095910;28;19926;-67
2023/05/09 03:41:27;;;;;;;;;;;;;;;9.66;88.46;96886.69;5096012;28;20297;-68
2023/05/09 03:43:55;;;;;;;;;;;;;;;9.65;88.23;96889.34;5095831;28;20369;-67
2023/05/09 03:46:22;;;;;;;;;;;;;;;9.68;88.72;96886.66;5095515;28;19942;-68
2023/05/09 03:48:50;;;;;;;;;;;;;;;9.73;88.84;96883.00;5095706;28;19969;-66
2023/05/09 03:51:18;;;;;;;;;;;;;;;9.75;88.47;96884.75;5095714;28;19974;-67
2023/05/09 03:53:46;;;;;;;;;;;;;;;9.67;89.28;96890.19;5095516;28;19963;-68
2023/05/09 03:56:14;;;;;;;;;;;;;;;9.67;88.76;96892.78;5095687;28;19945;-67
2023/05/09 03:58:42;;;;;;;;;;;;;;;9.65;89.54;96890.22;5095611;28;20362;-68
2023/05/09 04:01:10;;;;;;;;;;;;;;;9.63;88.94;96894.63;5095637;28;19920;-68
2023/05/09 04:03:40;;;;;;;;;;;;;;;9.66;89.98;96893.69;5095513;28;19919;-67
2023/05/09 04:06:09;;;;;;;;;;;;;;;9.67;89.22;96891.06;5095149;28;19974;-67
2023/05/09 04:08:36;;;;;;;;;;;;;;;9.69;89.63;96894.44;5095425;28;19924;-67
2023/05/09 04:11:04;;;;;;;;;;;;;;;9.71;88.59;96897.88;5095227;28;19920;-69
2023/05/09 04:13:32;;;;;;;;;;;;;;;9.69;88.33;96898.84;5095204;28;19920;-67
2023/05/09 04:16:00;;;;;;;;;;;;;;;9.64;89.01;96903.31;5095238;28;19920;-66
2023/05/09 04:18:27;;;;;;;;;;;;;;;9.63;88.76;96904.25;5095172;28;19920;-67
2023/05/09 04:20:55;;;;;;;;;;;;;;;9.58;89.75;96899.13;5095039;28;19987;-67
2023/05/09 04:23:24;;;;;;;;;;;;;;;9.56;88.68;96904.41;5095091;28;19920;-69
2023/05/09 04:25:53;;;;;;;;;;;;;;;9.53;89.19;96907.09;5094965;28;20014;-67
2023/05/09 04:28:20;;;;;;;;;;;;;;;9.56;89.78;96908.75;5094872;28;20405;-68
2023/05/09 04:30:47;;;;;;;;;;;;;;;9.57;89.81;96905.28;5094818;28;19927;-67
2023/05/09 04:33:13;;;;;;;;;;;;;;;9.48;90.35;96907.22;5094863;28;19927;-67
2023/05/09 04:35:42;;;;;;;;;;;;;;;9.50;90.27;96909.78;5094787;28;19920;-68
2023/05/09 04:38:10;;;;;;;;;;;;;;;9.37;90.12;96911.03;5094791;28;20045;-68
2023/05/09 04:40:39;;;;;;;;;;;;;;;9.42;90.34;96910.00;5094830;28;19920;-67
2023/05/09 04:43:08;;;;;;;;;;;;;;;9.44;90.48;96903.00;5094797;28;20011;-69
2023/05/09 04:45:35;;;;;;;;;;;;;;;9.48;91.14;96906.34;5094628;28;19963;-68
2023/05/09 04:48:05;;;;;;;;;;;;;;;9.46;91.08;96906.41;5094345;28;19920;-68
2023/05/09 04:50:32;;;;;;;;;;;;;;;9.52;91.41;96912.38;5094501;28;20008;-68
2023/05/09 04:52:59;;;;;;;;;;;;;;;9.49;90.85;96913.31;5094554;28;20292;-67
2023/05/09 04:55:26;;;;;;;;;;;;;;;9.51;91.44;96908.06;5094511;28;19920;-68
2023/05/09 04:57:54;;;;;;;;;;;;;;;9.46;91.37;96900.34;5094469;28;19979;-67
2023/05/09 05:00:22;;;;;;;;;;;;;;;9.42;90.94;96904.78;5094238;28;19920;-68
2023/05/09 05:02:49;;;;;;;;;;;;;;;9.44;91.48;96897.78;5094402;28;19926;-67
2023/05/09 05:05:16;;;;;;;;;;;;;;;9.44;91.19;96908.22;5094580;28;19927;-68
2023/05/09 05:07:44;;;;;;;;;;;;;;;9.45;92.07;96907.31;5094167;28;19920;-68
2023/05/09 05:10:10;;;;;;;;;;;;;;;9.39;92.03;96902.25;5094269;28;20010;-67
2023/05/09 05:12:40;;;;;;;;;;;;;;;9.42;91.16;96904.78;5094103;28;19920;-68
2023/05/09 05:15:11;;;;;;;;;;;;;;;9.48;91.73;96912.44;5094338;28;19920;-69
2023/05/09 05:17:38;;;;;;;;;;;;;;;9.52;90.94;96909.75;5093813;28;19920;-68
2023/05/09 05:20:07;;;;;;;;;;;;;;;9.58;90.94;96915.66;5093624;28;19927;-68
2023/05/09 05:22:34;;;;;;;;;;;;;;;9.55;90.54;96915.75;5094057;28;20361;-68
2023/05/09 05:25:02;;;;;;;;;;;;;;;9.60;91.00;96916.47;5093975;28;19942;-68
2023/05/09 05:27:29;;;;;;;;;;;;;;;9.65;90.04;96913.72;5093834;28;20378;-68
2023/05/09 05:29:56;;;;;;;;;;;;;;;9.71;91.05;96915.31;5093772;28;19926;-69
2023/05/09 05:32:26;;;;;;;;;;;;;;;9.80;91.27;96917.66;5093922;28;20227;-68
2023/05/09 05:34:52;;;;;;;;;;;;;;;9.86;90.99;96920.09;5093953;28;19920;-69
2023/05/09 05:37:19;;;;;;;;;;;;;;;9.86;90.29;96920.09;5093778;28;19920;-67
2023/05/09 05:39:46;;;;;;;;;;;;;;;9.84;89.99;96921.03;5093724;28;20358;-67
2023/05/09 05:42:13;;;;;;;;;;;;;;;9.82;90.50;96917.63;5093673;28;20006;-68
2023/05/09 05:44:39;;;;;;;;;;;;;;;9.77;89.95;96920.38;5093728;28;19970;-67
2023/05/09 05:47:06;;;;;;;;;;;;;;;9.77;90.46;96930.81;5093269;28;20374;-69
2023/05/09 05:49:36;;;;;;;;;;;;;;;9.87;91.53;96928.78;5093686;28;19919;-68
2023/05/09 05:52:03;;;;;;;;;;;;;;;9.80;90.04;96935.97;5093602;28;19966;-67
2023/05/09 05:54:30;;;;;;;;;;;;;;;9.69;90.82;96932.81;5093649;28;19924;-68
2023/05/09 05:56:56;;;;;;;;;;;;;;;9.49;88.61;96934.22;5093680;28;20072;-68
2023/05/09 05:59:23;;;;;;;;;;;;;;;9.42;88.65;96940.50;5093660;28;19920;-67
2023/05/09 06:01:50;;;;;;;;;;;;;;;9.43;89.30;96937.84;5093567;28;19927;-69
2023/05/09 06:04:17;;;;;;;;;;;;;;;9.37;86.81;96942.34;5093751;28;20311;-69
2023/05/09 06:06:45;;;;;;;;;;;;;;;9.30;85.09;96941.69;5093545;28;19920;-67
2023/05/09 06:09:12;;;;;;;;;;;;;;;9.22;86.38;96940.09;5093536;28;19927;-67
2023/05/09 06:11:39;;;;;;;;;;;;;;;9.16;85.96;96942.03;5093565;28;19927;-68
2023/05/09 06:14:06;;;;;;;;;;;;;;;9.22;87.29;96942.72;5093467;28;19946;-68
2023/05/09 06:16:33;;;;;;;;;;;;;;;9.39;87.71;96941.41;5093447;28;19920;-68
2023/05/09 06:19:00;;;;;;;;;;;;;;;9.58;88.20;96944.38;5093431;28;20411;-68
2023/05/09 06:21:26;;;;;;;;;;;;;;;9.64;86.32;96938.16;5093521;28;20377;-68
2023/05/09 06:23:55;;;;;;;;;;;;;;;9.71;86.35;96944.91;5093379;28;19971;-68
2023/05/09 06:26:22;;;;;;;;;;;;;;;9.80;87.27;96949.03;5093229;28;19927;-68
2023/05/09 06:28:48;;;;;;;;;;;;;;;9.80;86.38;96942.94;5093214;28;20026;-67
2023/05/09 06:31:15;;;;;;;;;;;;;;;9.75;83.98;96948.28;5096986;28;19920;-69
2023/05/09 06:33:42;;;;;;;;;;;;;;;9.75;85.39;96952.66;5097142;28;19920;-67
2023/05/09 06:36:09;;;;;;;;;;;;;;;9.77;85.57;96945.63;5097120;28;19982;-67
2023/05/09 06:38:36;;;;;;;;;;;;;;;9.78;86.73;96953.41;5097143;28;20370;-68
2023/05/09 06:41:05;;;;;;;;;;;;;;;9.77;84.76;96949.09;5097036;28;19924;-67
2023/05/09 06:43:31;;;;;;;;;;;;;;;9.66;83.92;96953.78;5096990;28;19966;-68
2023/05/09 06:45:58;;;;;;;;;;;;;;;9.56;85.24;96948.81;5096712;28;19920;-67
2023/05/09 06:48:25;;;;;;;;;;;;;;;9.46;84.64;96950.78;5096979;28;19923;-68
2023/05/09 06:50:52;;;;;;;;;;;;;;;9.43;85.59;96943.06;5096838;28;19932;-69
2023/05/09 06:53:19;;;;;;;;;;;;;;;9.48;87.17;96948.13;5096857;28;19927;-68
2023/05/09 06:55:46;;;;;;;;;;;;;;;9.53;85.65;96940.19;5096748;28;20370;-68
2023/05/09 06:58:14;;;;;;;;;;;;;;;9.45;86.05;96929.97;5096742;28;19928;-68
2023/05/09 07:00:41;;;;;;;;;;;;;;;9.45;87.20;96935.19;5096739;28;19930;-67
2023/05/09 07:03:09;;;;;;;;;;;;;;;9.40;86.52;96931.84;5096764;28;19973;-67
2023/05/09 07:05:36;;;;;;;;;;;;;;;9.38;87.14;96938.84;5096596;28;19970;-68
2023/05/09 07:08:03;;;;;;;;;;;;;;;9.39;88.15;96944.03;5096494;28;19920;-67
2023/05/09 07:10:30;;;;;;;;;;;;;;;9.41;88.20;96944.84;5096462;28;19923;-68
2023/05/09 07:13:00;;;;;;;;;;;;;;;9.37;89.11;96943.22;5096467;28;19920;-69
2023/05/09 07:15:29;;;;;;;;;;;;;;;9.35;90.79;96952.84;5096449;28;19920;-68
2023/05/09 07:17:56;;;;;;;;;;;;;;;9.29;90.17;96958.22;5096389;28;19923;-68
2023/05/09 07:20:23;;;;;;;;;;;;;;;9.26;89.70;96948.72;5096397;28;19927;-67
2023/05/09 07:22:49;;;;;;;;;;;;;;;9.19;90.23;96952.41;5096415;28;20372;-67
2023/05/09 07:25:17;;;;;;;;;;;;;;;9.10;89.77;96956.09;5096402;28;20357;-67
2023/05/09 07:27:44;;;;;;;;;;;;;;;9.07;88.83;96953.56;5096203;28;19920;-68
2023/05/09 07:30:11;;;;;;;;;;;;;;;9.03;87.57;96959.78;5095995;28;19925;-69
2023/05/09 07:32:40;;;;;;;;;;;;;;;9.10;89.03;96962.16;5096160;28;20352;-67
2023/05/09 07:35:07;;;;;;;;;;;;;;;9.05;86.67;96953.59;5096106;28;19920;-67
2023/05/09 07:37:34;;;;;;;;;;;;;;;8.98;86.85;96960.72;5096108;28;20438;-69
2023/05/09 07:40:02;;;;;;;;;;;;;;;9.00;88.40;96952.84;5095977;28;19919;-69
2023/05/09 07:42:31;;;;;;;;;;;;;;;8.99;89.15;96961.59;5095245;28;20379;-68
2023/05/09 07:44:58;;;;;;;;;;;;;;;9.06;89.29;96960.53;5095870;28;19971;-68
2023/05/09 07:47:25;;;;;;;;;;;;;;;9.07;87.09;96958.78;5095549;28;19920;-67
2023/05/09 07:49:53;;;;;;;;;;;;;;;9.10;88.28;96962.16;5095773;28;19977;-68
2023/05/09 07:52:20;;;;;;;;;;;;;;;9.20;88.86;96962.81;5095598;28;20027;-67
2023/05/09 07:54:47;;;;;;;;;;;;;;;9.30;88.24;96960.78;5095887;28;19920;-68
2023/05/09 07:57:13;;;;;;;;;;;;;;;9.47;88.36;96959.50;5095647;28;19950;-67
2023/05/09 07:59:41;;;;;;;;;;;;;;;9.48;86.14;96964.69;5095565;28;19966;-69
2023/05/09 08:02:08;;;;;;;;;;;;;;;9.54;85.75;96963.66;5095587;28;19927;-69
2023/05/09 08:04:37;;;;;;;;;;;;;;;9.54;84.93;96966.25;5095598;28;19978;-68
2023/05/09 08:07:06;;;;;;;;;;;;;;;9.55;84.42;96960.16;5095268;28;19920;-67
2023/05/09 08:09:33;;;;;;;;;;;;;;;9.48;84.25;96969.03;5095397;28;20009;-66
2023/05/09 08:11:59;;;;;;;;;;;;;;;9.52;85.34;96972.44;5095241;28;19924;-67
2023/05/09 08:14:27;;;;;;;;;;;;;;;9.54;85.71;96976.72;5095353;28;19924;-68
2023/05/09 08:16:54;;;;;;;;;;;;;;;9.62;86.72;96979.13;5095281;28;19920;-68
2023/05/09 08:19:23;;;;;;;;;;;;;;;9.53;85.72;96981.97;5095203;28;19920;-68
2023/05/09 08:21:50;;;;;;;;;;;;;;;9.63;86.30;96980.00;5095212;28;19950;-69
2023/05/09 08:24:19;;;;;;;;;;;;;;;9.64;84.92;96982.56;5095054;28;20381;-67
2023/05/09 08:26:45;;;;;;;;;;;;;;;9.69;85.67;96985.06;5095022;28;20019;-67
2023/05/09 08:29:12;;;;;;;;;;;;;;;9.77;85.38;96976.97;5095034;28;19923;-68
2023/05/09 08:31:39;;;;;;;;;;;;;;;9.92;85.09;96970.47;5094955;28;20038;-68
2023/05/09 08:34:06;;;;;;;;;;;;;;;10.02;86.34;96978.91;5094788;28;19920;-68
2023/05/09 08:36:34;;;;;;;;;;;;;;;10.04;85.31;96975.34;5095016;28;19950;-69
2023/05/09 08:39:01;;;;;;;;;;;;;;;9.95;83.53;96973.00;5094901;28;19920;-69
2023/05/09 08:41:30;;;;;;;;;;;;;;;9.97;84.47;96976.44;5094753;28;19971;-67
2023/05/09 08:43:57;;;;;;;;;;;;;;;10.12;83.42;96972.53;5094868;28;19963;-69
2023/05/09 08:46:26;;;;;;;;;;;;;;;10.19;82.72;96974.03;5094492;28;19927;-69
2023/05/09 08:48:54;;;;;;;;;;;;;;;10.16;83.22;96970.66;5094630;28;19920;-67
2023/05/09 08:51:21;;;;;;;;;;;;;;;10.22;84.16;96970.47;5094541;28;19930;-69
2023/05/09 08:53:48;;;;;;;;;;;;;;;10.07;84.36;96972.66;5093558;28;19971;-67
2023/05/09 08:56:15;;;;;;;;;;;;;;;9.90;84.62;96975.72;5094455;28;19970;-68
2023/05/09 08:58:44;;;;;;;;;;;;;;;9.93;84.96;96969.59;5094561;28;20014;-69
2023/05/09 09:01:13;;;;;;;;;;;;;;;9.99;84.73;96970.25;5094462;28;19963;-67
2023/05/09 09:03:46;;;;;;;;;;;;;;;10.08;85.01;96969.13;5094390;28;20400;-69
2023/05/09 09:06:14;;;;;;;;;;;;;;;9.96;84.42;96975.56;5094314;28;19931;-68
2023/05/09 09:08:42;;;;;;;;;;;;;;;9.96;85.74;96979.91;5094341;28;20009;-69
2023/05/09 09:11:12;;;;;;;;;;;;;;;9.95;85.72;96978.22;5094116;28;19920;-69
2023/05/09 09:13:40;;;;;;;;;;;;;;;9.98;86.71;96980.75;5094141;28;20336;-69
2023/05/09 09:16:09;;;;;;;;;;;;;;;10.03;85.85;96968.41;5094135;28;19939;-68
2023/05/09 09:18:37;;;;;;;;;;;;;;;10.01;85.36;96979.78;5094026;28;19950;-67
2023/05/09 09:21:06;;;;;;;;;;;;;;;10.01;85.75;96977.19;5093975;28;19924;-67
2023/05/09 09:23:33;;;;;;;;;;;;;;;10.04;85.28;96977.09;5093971;28;19928;-67
2023/05/09 09:26:03;;;;;;;;;;;;;;;10.16;86.74;96979.38;5094031;28;20006;-68
2023/05/09 09:28:31;;;;;;;;;;;;;;;10.26;86.92;96977.31;5093806;28;19920;-68
2023/05/09 09:30:58;;;;;;;;;;;;;;;10.38;87.00;96977.88;5093861;28;19920;-68
2023/05/09 09:33:27;;;;;;;;;;;;;;;10.42;86.66;96975.09;5093938;28;20361;-68
2023/05/09 09:35:55;;;;;;;;;;;;;;;10.52;85.13;96972.25;5093848;28;19920;-68
2023/05/09 09:38:22;;;;;;;;;;;;;;;10.55;85.52;96967.78;5093839;28;20263;-67
2023/05/09 09:40:53;;;;;;;;;;;;;;;10.54;84.14;96968.66;5093872;28;20277;-69
2023/05/09 09:43:19;;;;;;;;;;;;;;;10.55;84.92;96970.41;5093858;28;20366;-67
2023/05/09 09:45:49;;;;;;;;;;;;;;;10.45;84.52;96961.97;5093540;28;19926;-67
2023/05/09 09:48:16;;;;;;;;;;;;;;;10.32;85.14;96964.06;5093711;28;20361;-68
2023/05/09 09:50:47;;;;;;;;;;;;;;;10.38;85.51;96963.03;5093580;28;19927;-69
2023/05/09 09:53:14;;;;;;;;;;;;;;;10.30;85.37;96965.03;5093609;28;20052;-67
2023/05/09 09:55:49;;;;;;;;;;;;;;;10.26;86.54;96974.72;5093626;28;19920;-67
2023/05/09 09:58:17;;;;;;;;;;;;;;;10.26;86.69;96976.50;5093695;28;19920;-67
2023/05/09 10:00:44;;;;;;;;;;;;;;;10.36;87.33;96967.47;5093570;28;19920;-68
2023/05/09 10:03:15;;;;;;;;;;;;;;;10.40;85.29;96970.81;5093693;28;19974;-68
2023/05/09 10:05:42;;;;;;;;;;;;;;;10.31;85.04;96978.06;5096627;28;19920;-69
2023/05/09 10:08:10;;;;;;;;;;;;;;;10.27;86.09;96976.44;5097792;28;19926;-67
2023/05/09 10:10:38;;;;;;;;;;;;;;;10.39;84.09;96972.59;5097651;28;20046;-67
2023/05/09 10:13:06;;;;;;;;;;;;;;;10.31;81.91;96970.22;5097618;28;19920;-68
2023/05/09 10:15:35;;;;;;;;;;;;;;;10.48;83.32;96971.50;5097709;28;19924;-68
2023/05/09 10:18:03;;;;;;;;;;;;;;;10.40;79.88;96966.47;5097600;28;19920;-68
2023/05/09 10:20:30;;;;;;;;;;;;;;;10.41;79.68;96973.38;5097673;28;19966;-68
2023/05/09 10:22:58;;;;;;;;;;;;;;;10.32;80.22;96969.31;5097486;28;19920;-69
2023/05/09 10:25:28;;;;;;;;;;;;;;;10.37;80.32;96974.41;5097421;28;19920;-68
2023/05/09 10:27:56;;;;;;;;;;;;;;;10.43;80.50;96966.38;5097325;28;20357;-69
2023/05/09 10:30:28;;;;;;;;;;;;;;;10.51;81.39;96975.75;5097390;28;20306;-68
2023/05/09 10:32:58;;;;;;;;;;;;;;;10.69;80.71;96967.31;5097191;28;20381;-67
2023/05/09 10:35:27;;;;;;;;;;;;;;;10.80;78.88;96968.75;5097271;28;19920;-69
2023/05/09 10:37:56;;;;;;;;;;;;;;;10.78;76.82;96971.44;5097250;28;19926;-69
2023/05/09 10:40:23;;;;;;;;;;;;;;;10.77;78.96;96969.72;5097125;28;19970;-67
2023/05/09 10:42:52;;;;;;;;;;;;;;;10.91;81.37;96966.66;5097067;28;19966;-67
2023/05/09 10:45:19;;;;;;;;;;;;;;;11.03;79.07;96969.75;5097024;28;19920;-67
2023/05/09 10:47:48;;;;;;;;;;;;;;;11.09;77.89;96965.19;5096770;28;20535;-70
2023/05/09 10:50:16;;;;;;;;;;;;;;;11.09;77.22;96964.34;5096876;28;20365;-67
2023/05/09 10:53:02;;;;;;;;;;;;;;;11.07;75.92;96966.13;5096742;28;19977;-68
2023/05/09 10:55:36;;;;;;;;;;;;;;;11.10;76.95;96963.41;5096861;28;19920;-67
2023/05/09 10:58:18;;;;;;;;;;;;;;;11.17;77.13;96962.28;5096892;28;20174;-67
2023/05/09 11:00:45;;;;;;;;;;;;;;;11.20;76.60;96963.97;5096859;28;19963;-67
2023/05/09 11:03:12;;;;;;;;;;;;;;;11.19;74.68;96964.88;5096647;28;19926;-67
2023/05/09 11:05:39;;;;;;;;;;;;;;;11.31;76.88;96971.44;5096646;28;20019;-68
2023/05/09 11:08:19;;;;;;;;;;;;;;;11.27;75.57;96962.00;5096752;28;19920;-68
2023/05/09 11:10:46;;;;;;;;;;;;;;;11.25;73.68;96965.53;5096595;28;19920;-67
2023/05/09 11:13:18;;;;;;;;;;;;;;;11.38;75.64;96962.50;5096411;28;19924;-68
2023/05/09 11:16:06;;;;;;;;;;;;;;;11.38;74.74;96960.72;5095705;28;19978;-70
2023/05/09 11:18:33;;;;;;;;;;;;;;;11.44;75.78;96953.56;5091490;28;19927;-68
2023/05/09 11:21:07;;;;;;;;;;;;;;;11.55;75.63;96954.03;5096374;28;19919;-69
2023/05/09 11:23:34;;;;;;;;;;;;;;;11.67;76.43;96955.38;5096393;28;19942;-69
2023/05/09 11:26:05;;;;;;;;;;;;;;;11.72;73.77;96957.81;5096263;28;19927;-67
2023/05/09 11:28:34;;;;;;;;;;;;;;;11.76;74.07;96956.78;5096158;28;19920;-67
2023/05/09 11:31:11;;;;;;;;;;;;;;;11.83;73.58;96957.44;5096204;28;20296;-67
2023/05/09 11:33:38;;;;;;;;;;;;;;;11.82;72.25;96953.97;5096140;28;19920;-67
2023/05/09 11:36:24;;;;;;;;;;;;;;;11.92;73.27;96962.31;5095960;28;20019;-67
2023/05/09 11:39:00;;;;;;;;;;;;;;;11.97;73.53;96962.16;5095982;28;19927;-67
2023/05/09 11:41:28;;;;;;;;;;;;;;;12.05;73.63;96960.13;5096123;28;19920;-67
2023/05/09 11:43:58;;;;;;;;;;;;;;;12.08;72.08;96956.56;5096007;28;19923;-68
2023/05/09 11:46:26;;;;;;;;;;;;;;;12.11;73.19;96956.44;5095665;28;20357;-67
2023/05/09 11:48:53;;;;;;;;;;;;;;;12.09;72.94;96947.78;5095883;28;19934;-67
2023/05/09 11:51:20;;;;;;;;;;;;;;;12.16;73.52;96945.78;5095787;28;19931;-67
2023/05/09 11:53:52;;;;;;;;;;;;;;;12.11;71.90;96952.06;5095711;28;19997;-68
2023/05/09 11:56:21;;;;;;;;;;;;;;;11.95;72.74;96958.75;5095791;28;19988;-68
2023/05/09 11:58:51;;;;;;;;;;;;;;;11.97;72.26;96949.06;5095725;28;19927;-67
2023/05/09 12:01:20;;;;;;;;;;;;;;;12.11;73.23;96956.44;5095594;28;19995;-68
2023/05/09 12:03:47;;;;;;;;;;;;;;;12.15;71.89;96955.41;5095626;28;19971;-68
2023/05/09 12:06:15;;;;;;;;;;;;;;;12.11;72.46;96961.69;5095455;28;20021;-68
2023/05/09 12:08:43;;;;;;;;;;;;;;;12.10;72.70;96952.97;5095400;28;20372;-69
2023/05/09 12:11:10;;;;;;;;;;;;;;;12.05;73.03;96954.03;5095358;28;19923;-67
2023/05/09 12:13:44;;;;;;;;;;;;;;;12.05;73.48;96952.25;5095250;28;20380;-68
2023/05/09 12:16:11;;;;;;;;;;;;;;;12.05;73.76;96947.00;5095299;28;20006;-67
2023/05/09 12:18:44;;;;;;;;;;;;;;;12.12;72.21;96942.41;5095141;28;19927;-68
2023/05/09 12:21:11;;;;;;;;;;;;;;;12.21;72.15;96938.59;5095280;28;19920;-68
2023/05/09 12:23:37;;;;;;;;;;;;;;;12.21;70.58;96938.59;5095144;28;20392;-67
2023/05/09 12:26:04;;;;;;;;;;;;;;;12.33;72.11;96932.00;5095199;28;19920;-69
2023/05/09 12:28:31;;;;;;;;;;;;;;;12.36;70.42;96926.66;5095019;28;20373;-68
2023/05/09 12:30:58;;;;;;;;;;;;;;;12.35;70.70;96919.69;5095044;28;19935;-68
2023/05/09 12:33:25;;;;;;;;;;;;;;;12.41;70.46;96919.47;5094920;28;19924;-68
2023/05/09 12:36:03;;;;;;;;;;;;;;;12.51;73.00;96918.19;5094934;28;19963;-67
2023/05/09 12:38:30;;;;;;;;;;;;;;;12.65;70.23;96919.41;5094816;28;19963;-67
2023/05/09 12:41:01;;;;;;;;;;;;;;;12.78;71.13;96914.50;5094883;28;20036;-67
2023/05/09 12:43:29;;;;;;;;;;;;;;;12.80;68.84;96912.69;5094865;28;20383;-67
2023/05/09 12:45:57;;;;;;;;;;;;;;;12.83;69.44;96911.69;5094576;28;19920;-69
2023/05/09 12:48:24;;;;;;;;;;;;;;;12.70;70.61;96908.72;5094688;28;19965;-67
2023/05/09 12:50:51;;;;;;;;;;;;;;;12.73;71.69;96912.06;5094602;28;19920;-68
2023/05/09 12:53:25;;;;;;;;;;;;;;;12.70;69.72;96900.84;5094557;28;20007;-67
2023/05/09 12:55:54;;;;;;;;;;;;;;;12.57;69.66;96898.72;5094694;28;20006;-68
2023/05/09 12:58:21;;;;;;;;;;;;;;;12.43;71.78;96909.75;5094566;28;19963;-67